sensor_id;sensor_type;location;lat;lon;timestamp;pressure;altitude;pressure_sealevel;temperature;humidity
41515;BME280;27247;48.020;16.720;2023-08-06T00:03:40;98664.16;;;15.96;100.00
41515;BME280;27247;48.020;16.720;2023-08-06T00:07:50;98659.91;;;16.01;100.00
41515;BME280;27247;48.020;16.720;2023-08-06T00:12:01;98661.78;;;16.00;100.00
41515;BME280;27247;48.020;16.720;2023-08-06T00:16:12;98661.56;;;16.02;100.00
41515;BME280;27247;48.020;16.720;2023-08-06T00:20:22;98656.75;;;16.04;100.00
41515;BME280;27247;48.020;16.720;2023-08-06T00:24:34;98664.00;;;16.03;100.00
41515;BME280;27247;48.020;16.720;2023-08-06T00:28:44;98647.84;;;16.03;100.00
41515;BME280;27247;48.020;16.720;2023-08-06T00:32:55;98641.63;;;16.03;100.00
41515;BME280;27247;48.020;16.720;2023-08-06T00:37:05;98636.72;;;16.00;100.00
41515;BME280;27247;48.020;16.720;2023-08-06T00:41:16;98616.38;;;15.92;100.00
41515;BME280;27247;48.020;16.720;2023-08-06T00:45:28;98607.13;;;15.88;100.00
41515;BME280;27247;48.020;16.720;2023-08-06T00:49:40;98614.28;;;15.82;100.00
41515;BME280;27247;48.020;16.720;2023-08-06T00:53:52;98619.81;;;15.76;100.00
41515;BME280;27247;48.020;16.720;2023-08-06T00:58:03;98621.44;;;15.77;100.00
41515;BME280;27247;48.020;16.720;2023-08-06T01:02:14;98619.09;;;15.80;100.00
41515;BME280;27247;48.020;16.720;2023-08-06T01:15:43;98583.06;;;15.70;100.00
41515;BME280;27247;48.020;16.720;2023-08-06T01:19:56;98589.75;;;15.67;100.00
41515;BME280;27247;48.020;16.720;2023-08-06T01:24:06;98597.25;;;15.65;100.00
41515;BME280;27247;48.020;16.720;2023-08-06T01:28:33;98593.59;;;15.59;100.00
41515;BME280;27247;48.020;16.720;2023-08-06T01:32:50;98602.38;;;15.55;100.00
41515;BME280;27247;48.020;16.720;2023-08-06T01:37:03;98614.09;;;15.49;100.00
41515;BME280;27247;48.020;16.720;2023-08-06T01:41:14;98604.94;;;15.50;100.00
41515;BME280;27247;48.020;16.720;2023-08-06T01:45:24;98607.06;;;15.48;100.00
41515;BME280;27247;48.020;16.720;2023-08-06T01:49:35;98600.63;;;15.49;100.00
41515;BME280;27247;48.020;16.720;2023-08-06T01:53:46;98604.03;;;15.44;100.00
41515;BME280;27247;48.020;16.720;2023-08-06T01:57:56;98595.94;;;15.44;100.00
41515;BME280;27247;48.020;16.720;2023-08-06T02:02:07;98587.75;;;15.39;100.00
41515;BME280;27247;48.020;16.720;2023-08-06T02:06:17;98590.47;;;15.39;100.00
41515;BME280;27247;48.020;16.720;2023-08-06T02:10:27;98595.38;;;15.42;100.00
41515;BME280;27247;48.020;16.720;2023-08-06T02:14:38;98594.31;;;15.43;100.00
41515;BME280;27247;48.020;16.720;2023-08-06T02:18:48;98587.06;;;15.44;100.00
41515;BME280;27247;48.020;16.720;2023-08-06T02:22:58;98589.75;;;15.44;100.00
41515;BME280;27247;48.020;16.720;2023-08-06T02:27:09;98572.78;;;15.43;100.00
41515;BME280;27247;48.020;16.720;2023-08-06T02:31:19;98579.56;;;15.46;100.00
41515;BME280;27247;48.020;16.720;2023-08-06T02:35:29;98566.56;;;15.43;100.00
41515;BME280;27247;48.020;16.720;2023-08-06T02:39:40;98549.25;;;15.39;100.00
41515;BME280;27247;48.020;16.720;2023-08-06T02:43:50;98551.94;;;15.39;100.00
41515;BME280;27247;48.020;16.720;2023-08-06T02:48:00;98562.38;;;15.35;100.00
41515;BME280;27247;48.020;16.720;2023-08-06T02:52:12;98557.81;;;15.36;100.00
41515;BME280;27247;48.020;16.720;2023-08-06T02:56:23;98562.97;;;15.37;100.00
41515;BME280;27247;48.020;16.720;2023-08-06T03:00:33;98553.00;;;15.38;100.00
41515;BME280;27247;48.020;16.720;2023-08-06T03:04:43;98548.44;;;15.38;100.00
41515;BME280;27247;48.020;16.720;2023-08-06T03:08:54;98550.91;;;15.40;100.00
41515;BME280;27247;48.020;16.720;2023-08-06T03:13:04;98552.53;;;15.41;100.00
41515;BME280;27247;48.020;16.720;2023-08-06T03:17:14;98546.81;;;15.37;100.00
41515;BME280;27247;48.020;16.720;2023-08-06T03:21:25;98546.56;;;15.39;100.00
41515;BME280;27247;48.020;16.720;2023-08-06T03:25:36;98545.75;;;15.38;100.00
41515;BME280;27247;48.020;16.720;2023-08-06T03:29:49;98543.28;;;15.37;100.00
41515;BME280;27247;48.020;16.720;2023-08-06T03:34:03;98526.81;;;15.33;100.00
41515;BME280;27247;48.020;16.720;2023-08-06T03:38:13;98518.38;;;15.29;100.00
41515;BME280;27247;48.020;16.720;2023-08-06T03:42:23;98523.28;;;15.32;100.00
41515;BME280;27247;48.020;16.720;2023-08-06T03:46:34;98511.72;;;15.32;100.00
41515;BME280;27247;48.020;16.720;2023-08-06T03:50:44;98503.63;;;15.32;100.00
41515;BME280;27247;48.020;16.720;2023-08-06T03:54:54;98502.34;;;15.34;100.00
41515;BME280;27247;48.020;16.720;2023-08-06T03:59:05;98497.78;;;15.35;100.00
41515;BME280;27247;48.020;16.720;2023-08-06T04:03:15;98493.88;;;15.43;100.00
41515;BME280;27247;48.020;16.720;2023-08-06T04:07:25;98495.75;;;15.42;100.00
41515;BME280;27247;48.020;16.720;2023-08-06T04:11:36;98490.22;;;15.49;100.00
41515;BME280;27247;48.020;16.720;2023-08-06T04:15:46;98498.41;;;15.54;100.00
41515;BME280;27247;48.020;16.720;2023-08-06T04:19:57;98499.47;;;15.53;100.00
41515;BME280;27247;48.020;16.720;2023-08-06T04:24:09;98504.53;;;15.61;100.00
41515;BME280;27247;48.020;16.720;2023-08-06T04:28:19;98488.38;;;15.61;100.00
41515;BME280;27247;48.020;16.720;2023-08-06T04:32:30;98508.63;;;15.63;100.00
41515;BME280;27247;48.020;16.720;2023-08-06T04:36:40;98508.38;;;15.65;100.00
41515;BME280;27247;48.020;16.720;2023-08-06T04:40:51;98502.25;;;15.70;100.00
41515;BME280;27247;48.020;16.720;2023-08-06T04:45:02;98511.25;;;15.75;100.00
41515;BME280;27247;48.020;16.720;2023-08-06T04:49:12;98512.06;;;15.76;100.00
41515;BME280;27247;48.020;16.720;2023-08-06T04:53:22;98513.13;;;15.75;100.00
41515;BME280;27247;48.020;16.720;2023-08-06T04:57:33;98506.19;;;15.79;100.00
41515;BME280;27247;48.020;16.720;2023-08-06T05:01:44;98519.91;;;15.77;100.00
41515;BME280;27247;48.020;16.720;2023-08-06T05:05:54;98514.53;;;15.77;100.00
41515;BME280;27247;48.020;16.720;2023-08-06T05:10:05;98515.00;;;15.74;100.00
41515;BME280;27247;48.020;16.720;2023-08-06T05:14:16;98524.47;;;15.77;100.00
41515;BME280;27247;48.020;16.720;2023-08-06T05:18:26;98506.28;;;15.84;100.00
41515;BME280;27247;48.020;16.720;2023-08-06T05:22:36;98506.28;;;15.84;100.00
41515;BME280;27247;48.020;16.720;2023-08-06T05:26:47;98498.22;;;15.84;100.00
41515;BME280;27247;48.020;16.720;2023-08-06T05:30:57;98496.66;;;15.88;100.00
41515;BME280;27247;48.020;16.720;2023-08-06T05:35:08;98497.47;;;15.88;100.00
41515;BME280;27247;48.020;16.720;2023-08-06T05:39:18;98495.94;;;15.92;100.00
41515;BME280;27247;48.020;16.720;2023-08-06T05:43:29;98498.38;;;15.94;100.00
41515;BME280;27247;48.020;16.720;2023-08-06T05:47:39;98506.97;;;15.91;100.00
41515;BME280;27247;48.020;16.720;2023-08-06T05:51:49;98502.47;;;15.96;100.00
41515;BME280;27247;48.020;16.720;2023-08-06T05:56:00;98506.06;;;16.02;100.00
41515;BME280;27247;48.020;16.720;2023-08-06T06:00:11;98499.06;;;16.01;100.00
41515;BME280;27247;48.020;16.720;2023-08-06T06:04:21;98511.31;;;16.09;100.00
41515;BME280;27247;48.020;16.720;2023-08-06T06:08:32;98511.88;;;16.11;100.00
41515;BME280;27247;48.020;16.720;2023-08-06T06:12:42;98504.03;;;16.09;100.00
41515;BME280;27247;48.020;16.720;2023-08-06T06:16:52;98511.72;;;16.17;100.00
41515;BME280;27247;48.020;16.720;2023-08-06T06:21:03;98516.03;;;16.18;100.00
41515;BME280;27247;48.020;16.720;2023-08-06T06:25:14;98506.66;;;16.21;100.00
41515;BME280;27247;48.020;16.720;2023-08-06T06:29:25;98485.91;;;16.21;100.00
41515;BME280;27247;48.020;16.720;2023-08-06T06:33:35;98473.56;;;16.25;100.00
41515;BME280;27247;48.020;16.720;2023-08-06T06:37:45;98473.41;;;16.32;100.00
41515;BME280;27247;48.020;16.720;2023-08-06T06:41:56;98465.88;;;16.34;100.00
41515;BME280;27247;48.020;16.720;2023-08-06T06:46:06;98476.44;;;16.36;100.00
41515;BME280;27247;48.020;16.720;2023-08-06T06:50:16;98479.78;;;16.43;100.00
41515;BME280;27247;48.020;16.720;2023-08-06T06:54:27;98487.38;;;16.46;100.00
41515;BME280;27247;48.020;16.720;2023-08-06T06:58:37;98500.13;;;16.50;100.00
41515;BME280;27247;48.020;16.720;2023-08-06T07:02:49;98501.50;;;16.53;100.00
41515;BME280;27247;48.020;16.720;2023-08-06T07:06:59;98509.91;;;16.56;100.00
41515;BME280;27247;48.020;16.720;2023-08-06T07:11:10;98512.59;;;16.56;100.00
41515;BME280;27247;48.020;16.720;2023-08-06T07:15:20;98498.13;;;16.63;100.00
41515;BME280;27247;48.020;16.720;2023-08-06T07:19:30;98510.94;;;16.67;100.00
41515;BME280;27247;48.020;16.720;2023-08-06T07:23:41;98503.75;;;16.73;100.00
41515;BME280;27247;48.020;16.720;2023-08-06T07:27:51;98504.81;;;16.72;100.00
41515;BME280;27247;48.020;16.720;2023-08-06T07:32:02;98504.69;;;16.83;100.00
41515;BME280;27247;48.020;16.720;2023-08-06T07:36:13;98506.00;;;16.81;100.00
41515;BME280;27247;48.020;16.720;2023-08-06T07:40:23;98488.81;;;16.87;100.00
41515;BME280;27247;48.020;16.720;2023-08-06T07:44:34;98505.72;;;16.99;100.00
41515;BME280;27247;48.020;16.720;2023-08-06T07:48:44;98499.81;;;17.02;100.00
41515;BME280;27247;48.020;16.720;2023-08-06T07:52:54;98511.06;;;17.16;100.00
41515;BME280;27247;48.020;16.720;2023-08-06T07:57:05;98505.47;;;17.22;100.00
41515;BME280;27247;48.020;16.720;2023-08-06T08:01:16;98505.97;;;17.19;100.00
41515;BME280;27247;48.020;16.720;2023-08-06T08:05:26;98495.00;;;17.26;100.00
41515;BME280;27247;48.020;16.720;2023-08-06T08:09:36;98490.22;;;17.33;100.00
41515;BME280;27247;48.020;16.720;2023-08-06T08:13:46;98493.78;;;17.39;100.00
41515;BME280;27247;48.020;16.720;2023-08-06T08:17:57;98487.44;;;17.50;100.00
41515;BME280;27247;48.020;16.720;2023-08-06T08:22:08;98484.34;;;17.63;100.00
41515;BME280;27247;48.020;16.720;2023-08-06T08:26:18;98484.06;;;17.65;100.00
41515;BME280;27247;48.020;16.720;2023-08-06T08:30:28;98495.13;;;17.63;100.00
41515;BME280;27247;48.020;16.720;2023-08-06T08:34:39;98492.53;;;17.68;100.00
41515;BME280;27247;48.020;16.720;2023-08-06T08:38:49;98490.66;;;17.69;100.00
41515;BME280;27247;48.020;16.720;2023-08-06T08:43:04;98490.47;;;17.75;100.00
41515;BME280;27247;48.020;16.720;2023-08-06T08:47:15;98498.25;;;17.72;100.00
41515;BME280;27247;48.020;16.720;2023-08-06T08:51:30;98514.88;;;17.64;99.54
41515;BME280;27247;48.020;16.720;2023-08-06T08:55:40;98522.25;;;17.68;99.20
41515;BME280;27247;48.020;16.720;2023-08-06T08:59:52;98532.56;;;17.71;99.90
41515;BME280;27247;48.020;16.720;2023-08-06T09:04:04;98547.72;;;17.72;98.75
41515;BME280;27247;48.020;16.720;2023-08-06T09:08:18;98547.16;;;17.70;99.20
41515;BME280;27247;48.020;16.720;2023-08-06T09:12:29;98553.63;;;17.69;98.64
41515;BME280;27247;48.020;16.720;2023-08-06T09:16:40;98559.03;;;17.69;99.97
41515;BME280;27247;48.020;16.720;2023-08-06T09:20:50;98557.63;;;17.67;98.79
41515;BME280;27247;48.020;16.720;2023-08-06T09:25:01;98561.34;;;17.66;100.00
41515;BME280;27247;48.020;16.720;2023-08-06T09:29:11;98560.97;;;17.74;99.69
41515;BME280;27247;48.020;16.720;2023-08-06T09:33:22;98555.06;;;17.77;99.34
41515;BME280;27247;48.020;16.720;2023-08-06T09:37:36;98558.84;;;17.76;100.00
41515;BME280;27247;48.020;16.720;2023-08-06T09:41:47;98553.50;;;17.64;97.60
41515;BME280;27247;48.020;16.720;2023-08-06T09:46:01;98544.34;;;17.65;98.62
41515;BME280;27247;48.020;16.720;2023-08-06T09:50:20;98542.81;;;17.69;100.00
41515;BME280;27247;48.020;16.720;2023-08-06T09:54:31;98547.47;;;17.74;100.00
41515;BME280;27247;48.020;16.720;2023-08-06T09:58:42;98553.50;;;17.64;98.84
41515;BME280;27247;48.020;16.720;2023-08-06T10:02:54;98551.81;;;17.58;99.78
41515;BME280;27247;48.020;16.720;2023-08-06T10:07:09;98564.44;;;17.52;100.00
41515;BME280;27247;48.020;16.720;2023-08-06T10:11:21;98569.22;;;17.45;99.51
41515;BME280;27247;48.020;16.720;2023-08-06T10:15:32;98581.78;;;17.35;99.78
41515;BME280;27247;48.020;16.720;2023-08-06T10:19:43;98581.84;;;17.40;100.00
41515;BME280;27247;48.020;16.720;2023-08-06T10:23:54;98585.28;;;17.35;100.00
41515;BME280;27247;48.020;16.720;2023-08-06T10:28:09;98595.53;;;17.33;100.00
41515;BME280;27247;48.020;16.720;2023-08-06T10:32:19;98593.91;;;17.32;100.00
41515;BME280;27247;48.020;16.720;2023-08-06T10:36:31;98598.41;;;17.27;100.00
41515;BME280;27247;48.020;16.720;2023-08-06T10:41:03;98600.13;;;17.33;100.00
41515;BME280;27247;48.020;16.720;2023-08-06T10:45:15;98598.22;;;17.33;100.00
41515;BME280;27247;48.020;16.720;2023-08-06T10:49:26;98591.00;;;17.39;100.00
41515;BME280;27247;48.020;16.720;2023-08-06T10:53:38;98599.69;;;17.41;100.00
41515;BME280;27247;48.020;16.720;2023-08-06T10:57:48;98610.88;;;17.49;100.00
41515;BME280;27247;48.020;16.720;2023-08-06T11:01:59;98600.44;;;17.58;100.00
41515;BME280;27247;48.020;16.720;2023-08-06T11:06:10;98616.47;;;17.65;100.00
41515;BME280;27247;48.020;16.720;2023-08-06T11:10:20;98625.31;;;17.77;100.00
41515;BME280;27247;48.020;16.720;2023-08-06T11:14:30;98624.81;;;17.80;100.00
41515;BME280;27247;48.020;16.720;2023-08-06T11:18:41;98639.88;;;17.98;100.00
41515;BME280;27247;48.020;16.720;2023-08-06T11:22:52;98635.31;;;17.98;98.17
41515;BME280;27247;48.020;16.720;2023-08-06T11:27:11;98635.34;;;18.03;98.94
41515;BME280;27247;48.020;16.720;2023-08-06T11:31:23;98640.56;;;18.10;96.70
41515;BME280;27247;48.020;16.720;2023-08-06T11:35:35;98640.06;;;18.13;96.40
41515;BME280;27247;48.020;16.720;2023-08-06T11:39:47;98641.50;;;18.21;96.28
41515;BME280;27247;48.020;16.720;2023-08-06T11:43:59;98654.06;;;18.32;97.46
41515;BME280;27247;48.020;16.720;2023-08-06T11:48:10;98654.41;;;18.40;97.11
41515;BME280;27247;48.020;16.720;2023-08-06T11:52:25;98656.03;;;18.41;94.59
41515;BME280;27247;48.020;16.720;2023-08-06T11:56:35;98655.44;;;18.34;94.22
41515;BME280;27247;48.020;16.720;2023-08-06T12:00:46;98659.97;;;18.29;94.21
41515;BME280;27247;48.020;16.720;2023-08-06T12:05:09;98672.31;;;18.19;94.74
41515;BME280;27247;48.020;16.720;2023-08-06T12:09:20;98677.84;;;18.08;96.31
41515;BME280;27247;48.020;16.720;2023-08-06T12:13:30;98686.16;;;18.01;95.92
41515;BME280;27247;48.020;16.720;2023-08-06T12:17:41;98687.03;;;17.85;97.23
41515;BME280;27247;48.020;16.720;2023-08-06T12:21:52;98697.78;;;17.80;96.87
41515;BME280;27247;48.020;16.720;2023-08-06T12:26:02;98691.00;;;17.77;100.00
41515;BME280;27247;48.020;16.720;2023-08-06T12:30:13;98692.88;;;17.60;100.00
41515;BME280;27247;48.020;16.720;2023-08-06T12:34:23;98696.50;;;17.49;100.00
41515;BME280;27247;48.020;16.720;2023-08-06T12:38:34;98702.00;;;17.37;100.00
41515;BME280;27247;48.020;16.720;2023-08-06T12:42:44;98704.78;;;17.26;100.00
41515;BME280;27247;48.020;16.720;2023-08-06T12:46:54;98710.28;;;17.14;100.00
41515;BME280;27247;48.020;16.720;2023-08-06T12:51:05;98710.50;;;17.12;100.00
41515;BME280;27247;48.020;16.720;2023-08-06T12:55:15;98706.50;;;17.15;100.00
41515;BME280;27247;48.020;16.720;2023-08-06T12:59:26;98705.78;;;17.19;100.00
41515;BME280;27247;48.020;16.720;2023-08-06T13:03:36;98700.69;;;17.23;100.00
41515;BME280;27247;48.020;16.720;2023-08-06T13:07:47;98714.03;;;17.30;100.00
41515;BME280;27247;48.020;16.720;2023-08-06T13:11:58;98710.00;;;17.32;100.00
41515;BME280;27247;48.020;16.720;2023-08-06T13:16:10;98715.16;;;17.34;100.00
41515;BME280;27247;48.020;16.720;2023-08-06T13:20:21;98711.97;;;17.37;100.00
41515;BME280;27247;48.020;16.720;2023-08-06T13:24:33;98716.88;;;17.40;100.00
41515;BME280;27247;48.020;16.720;2023-08-06T13:28:44;98716.97;;;17.45;100.00
41515;BME280;27247;48.020;16.720;2023-08-06T13:32:55;98715.41;;;17.49;100.00
41515;BME280;27247;48.020;16.720;2023-08-06T13:37:06;98719.56;;;17.56;100.00
41515;BME280;27247;48.020;16.720;2023-08-06T13:41:17;98718.06;;;17.66;100.00
41515;BME280;27247;48.020;16.720;2023-08-06T13:45:28;98727.44;;;17.75;100.00
41515;BME280;27247;48.020;16.720;2023-08-06T13:49:41;98733.31;;;17.89;100.00
41515;BME280;27247;48.020;16.720;2023-08-06T13:53:52;98735.63;;;18.02;100.00
41515;BME280;27247;48.020;16.720;2023-08-06T13:58:02;98745.91;;;18.22;100.00
41515;BME280;27247;48.020;16.720;2023-08-06T14:02:13;98749.28;;;18.34;100.00
41515;BME280;27247;48.020;16.720;2023-08-06T14:06:24;98739.91;;;18.41;100.00
41515;BME280;27247;48.020;16.720;2023-08-06T14:10:35;98755.22;;;18.58;100.00
41515;BME280;27247;48.020;16.720;2023-08-06T14:14:46;98750.38;;;18.60;100.00
41515;BME280;27247;48.020;16.720;2023-08-06T14:18:56;98759.31;;;18.60;100.00
41515;BME280;27247;48.020;16.720;2023-08-06T14:23:08;98749.16;;;18.67;99.32
41515;BME280;27247;48.020;16.720;2023-08-06T14:27:19;98743.34;;;18.59;100.00
41515;BME280;27247;48.020;16.720;2023-08-06T14:31:30;98743.91;;;18.61;99.30
41515;BME280;27247;48.020;16.720;2023-08-06T14:35:40;98738.19;;;18.79;99.86
41515;BME280;27247;48.020;16.720;2023-08-06T14:39:51;98741.78;;;18.85;100.00
41515;BME280;27247;48.020;16.720;2023-08-06T14:44:02;98745.38;;;18.95;99.83
41515;BME280;27247;48.020;16.720;2023-08-06T14:48:13;98744.63;;;19.00;98.95
41515;BME280;27247;48.020;16.720;2023-08-06T14:52:24;98744.66;;;19.05;94.93
41515;BME280;27247;48.020;16.720;2023-08-06T14:56:34;98740.31;;;19.04;85.97
41515;BME280;27247;48.020;16.720;2023-08-06T15:00:45;98752.22;;;19.03;87.82
41515;BME280;27247;48.020;16.720;2023-08-06T15:04:56;98760.59;;;19.01;88.03
41515;BME280;27247;48.020;16.720;2023-08-06T15:09:07;98763.72;;;18.88;86.89
41515;BME280;27247;48.020;16.720;2023-08-06T15:13:18;98771.19;;;18.76;86.41
41515;BME280;27247;48.020;16.720;2023-08-06T15:17:29;98773.63;;;18.56;86.53
41515;BME280;27247;48.020;16.720;2023-08-06T15:21:40;98770.72;;;18.40;88.10
41515;BME280;27247;48.020;16.720;2023-08-06T15:25:51;98772.13;;;18.21;86.46
41515;BME280;27247;48.020;16.720;2023-08-06T15:30:06;98773.69;;;18.17;89.78
41515;BME280;27247;48.020;16.720;2023-08-06T15:34:17;98781.81;;;18.17;88.38
41515;BME280;27247;48.020;16.720;2023-08-06T15:38:30;98778.84;;;18.18;88.23
41515;BME280;27247;48.020;16.720;2023-08-06T15:42:41;98778.91;;;18.24;87.25
41515;BME280;27247;48.020;16.720;2023-08-06T15:46:52;98779.66;;;18.19;85.68
41515;BME280;27247;48.020;16.720;2023-08-06T15:51:03;98772.50;;;18.08;85.19
41515;BME280;27247;48.020;16.720;2023-08-06T15:55:14;98782.34;;;17.97;86.54
41515;BME280;27247;48.020;16.720;2023-08-06T15:59:32;98788.00;;;17.96;85.54
41515;BME280;27247;48.020;16.720;2023-08-06T16:03:43;98785.88;;;17.98;85.34
41515;BME280;27247;48.020;16.720;2023-08-06T16:07:54;98796.44;;;17.99;85.03
41515;BME280;27247;48.020;16.720;2023-08-06T16:12:05;98792.22;;;18.08;84.50
41515;BME280;27247;48.020;16.720;2023-08-06T16:16:16;98793.94;;;18.14;85.41
41515;BME280;27247;48.020;16.720;2023-08-06T16:20:27;98790.41;;;18.14;85.17
41515;BME280;27247;48.020;16.720;2023-08-06T16:24:37;98799.22;;;18.26;84.70
41515;BME280;27247;48.020;16.720;2023-08-06T16:28:48;98807.34;;;18.26;86.05
41515;BME280;27247;48.020;16.720;2023-08-06T16:32:59;98805.34;;;18.38;85.54
41515;BME280;27247;48.020;16.720;2023-08-06T16:37:10;98797.53;;;18.42;86.31
41515;BME280;27247;48.020;16.720;2023-08-06T16:41:20;98803.94;;;18.36;85.32
41515;BME280;27247;48.020;16.720;2023-08-06T16:45:31;98815.28;;;18.33;84.66
41515;BME280;27247;48.020;16.720;2023-08-06T16:49:47;98810.03;;;18.26;84.60
41515;BME280;27247;48.020;16.720;2023-08-06T16:53:58;98821.94;;;18.25;83.84
41515;BME280;27247;48.020;16.720;2023-08-06T16:58:08;98820.88;;;18.26;82.27
41515;BME280;27247;48.020;16.720;2023-08-06T17:02:19;98841.88;;;18.19;83.99
41515;BME280;27247;48.020;16.720;2023-08-06T17:06:30;98842.28;;;18.11;84.75
41515;BME280;27247;48.020;16.720;2023-08-06T17:10:41;98847.97;;;17.93;86.12
41515;BME280;27247;48.020;16.720;2023-08-06T17:14:52;98862.97;;;17.83;85.77
41515;BME280;27247;48.020;16.720;2023-08-06T17:19:03;98851.75;;;17.75;87.42
41515;BME280;27247;48.020;16.720;2023-08-06T17:23:14;98851.06;;;17.68;87.66
41515;BME280;27247;48.020;16.720;2023-08-06T17:27:25;98862.94;;;17.67;87.74
41515;BME280;27247;48.020;16.720;2023-08-06T17:31:36;98853.31;;;17.59;88.07
41515;BME280;27247;48.020;16.720;2023-08-06T17:35:47;98861.25;;;17.49;88.01
41515;BME280;27247;48.020;16.720;2023-08-06T17:40:00;98863.31;;;17.42;88.93
41515;BME280;27247;48.020;16.720;2023-08-06T17:44:11;98884.00;;;17.36;88.88
41515;BME280;27247;48.020;16.720;2023-08-06T17:48:25;98907.88;;;17.28;88.43
41515;BME280;27247;48.020;16.720;2023-08-06T17:52:35;98902.97;;;17.24;87.99
41515;BME280;27247;48.020;16.720;2023-08-06T17:56:46;98898.88;;;17.22;87.91
41515;BME280;27247;48.020;16.720;2023-08-06T18:00:57;98903.84;;;17.13;88.91
41515;BME280;27247;48.020;16.720;2023-08-06T18:05:07;98901.28;;;17.07;89.02
41515;BME280;27247;48.020;16.720;2023-08-06T18:09:17;98897.31;;;16.98;89.13
41515;BME280;27247;48.020;16.720;2023-08-06T18:13:28;98898.75;;;16.88;87.60
41515;BME280;27247;48.020;16.720;2023-08-06T18:17:40;98905.13;;;16.82;87.96
41515;BME280;27247;48.020;16.720;2023-08-06T18:21:55;98907.00;;;16.82;87.77
41515;BME280;27247;48.020;16.720;2023-08-06T18:26:07;98896.91;;;16.77;88.43
41515;BME280;27247;48.020;16.720;2023-08-06T18:30:18;98907.47;;;16.79;86.68
41515;BME280;27247;48.020;16.720;2023-08-06T18:34:29;98918.97;;;16.74;87.05
41515;BME280;27247;48.020;16.720;2023-08-06T18:38:40;98919.94;;;16.68;87.01
41515;BME280;27247;48.020;16.720;2023-08-06T18:42:53;98927.44;;;16.66;86.25
41515;BME280;27247;48.020;16.720;2023-08-06T18:47:04;98929.72;;;16.63;87.00
41515;BME280;27247;48.020;16.720;2023-08-06T18:51:15;98945.81;;;16.57;86.41
41515;BME280;27247;48.020;16.720;2023-08-06T18:55:27;98949.56;;;16.56;86.69
41515;BME280;27247;48.020;16.720;2023-08-06T18:59:38;98967.84;;;16.54;86.34
41515;BME280;27247;48.020;16.720;2023-08-06T19:03:49;98960.81;;;16.53;86.42
41515;BME280;27247;48.020;16.720;2023-08-06T19:08:00;98985.31;;;16.52;85.35
41515;BME280;27247;48.020;16.720;2023-08-06T19:12:12;98980.75;;;16.41;86.06
41515;BME280;27247;48.020;16.720;2023-08-06T19:16:24;98976.31;;;16.46;84.94
41515;BME280;27247;48.020;16.720;2023-08-06T19:20:43;98980.88;;;16.46;82.41
41515;BME280;27247;48.020;16.720;2023-08-06T19:24:54;98971.72;;;16.47;81.27
41515;BME280;27247;48.020;16.720;2023-08-06T19:29:05;98965.88;;;16.50;79.64
41515;BME280;27247;48.020;16.720;2023-08-06T19:33:16;98974.41;;;16.47;80.16
41515;BME280;27247;48.020;16.720;2023-08-06T19:37:27;98978.28;;;16.39;81.65
41515;BME280;27247;48.020;16.720;2023-08-06T19:41:38;98984.72;;;16.26;82.74
41515;BME280;27247;48.020;16.720;2023-08-06T19:45:49;98989.28;;;16.14;83.52
41515;BME280;27247;48.020;16.720;2023-08-06T19:50:00;98981.19;;;16.03;84.03
41515;BME280;27247;48.020;16.720;2023-08-06T19:54:11;98987.75;;;15.95;84.60
41515;BME280;27247;48.020;16.720;2023-08-06T19:58:21;98960.31;;;15.86;83.68
41515;BME280;27247;48.020;16.720;2023-08-06T20:02:32;98972.13;;;15.85;84.13
41515;BME280;27247;48.020;16.720;2023-08-06T20:06:43;98983.47;;;15.76;84.82
41515;BME280;27247;48.020;16.720;2023-08-06T20:10:53;98971.84;;;15.63;85.80
41515;BME280;27247;48.020;16.720;2023-08-06T20:15:07;98976.31;;;15.51;86.19
41515;BME280;27247;48.020;16.720;2023-08-06T20:19:17;98966.59;;;15.50;86.03
41515;BME280;27247;48.020;16.720;2023-08-06T20:23:28;98963.06;;;15.50;86.31
41515;BME280;27247;48.020;16.720;2023-08-06T20:27:38;98947.84;;;15.44;87.03
41515;BME280;27247;48.020;16.720;2023-08-06T20:31:49;98957.63;;;15.38;87.40
41515;BME280;27247;48.020;16.720;2023-08-06T20:35:59;98981.06;;;15.38;87.48
41515;BME280;27247;48.020;16.720;2023-08-06T20:40:10;98982.31;;;15.35;87.74
41515;BME280;27247;48.020;16.720;2023-08-06T20:44:21;98985.75;;;15.42;87.60
41515;BME280;27247;48.020;16.720;2023-08-06T20:48:31;98983.50;;;15.39;88.17
41515;BME280;27247;48.020;16.720;2023-08-06T20:52:42;98976.72;;;15.37;88.39
41515;BME280;27247;48.020;16.720;2023-08-06T20:56:52;98966.03;;;15.30;89.16
41515;BME280;27247;48.020;16.720;2023-08-06T21:01:03;98956.53;;;15.27;89.49
41515;BME280;27247;48.020;16.720;2023-08-06T21:05:13;98947.56;;;15.33;89.34
41515;BME280;27247;48.020;16.720;2023-08-06T21:09:23;98942.84;;;15.29;89.13
41515;BME280;27247;48.020;16.720;2023-08-06T21:13:35;98941.00;;;15.29;89.29
41515;BME280;27247;48.020;16.720;2023-08-06T21:17:46;98959.47;;;15.26;88.61
41515;BME280;27247;48.020;16.720;2023-08-06T21:21:56;98965.66;;;15.26;89.19
41515;BME280;27247;48.020;16.720;2023-08-06T21:26:07;98981.44;;;15.23;88.79
41515;BME280;27247;48.020;16.720;2023-08-06T21:30:17;98992.81;;;15.25;89.07
41515;BME280;27247;48.020;16.720;2023-08-06T21:34:28;99009.88;;;15.19;88.86
41515;BME280;27247;48.020;16.720;2023-08-06T21:38:39;99028.72;;;15.19;88.01
41515;BME280;27247;48.020;16.720;2023-08-06T21:42:50;99020.25;;;15.15;87.81
41515;BME280;27247;48.020;16.720;2023-08-06T21:47:00;99023.56;;;15.17;87.43
41515;BME280;27247;48.020;16.720;2023-08-06T21:51:18;99020.84;;;15.17;86.95
41515;BME280;27247;48.020;16.720;2023-08-06T21:55:30;99024.59;;;15.16;87.03